createdAt,value
2017-08-16T00:00:00.895Z,17.87
2017-08-16T00:02:27.208Z,21.00
2017-08-16T00:04:53.560Z,21.97
2017-08-16T00:07:19.897Z,21.00
2017-08-16T00:09:46.855Z,19.83
2017-08-16T00:12:13.248Z,23.10
2017-08-16T00:14:39.556Z,24.40
2017-08-16T00:17:05.953Z,29.30
2017-08-16T00:19:32.284Z,26.47
2017-08-16T00:21:58.853Z,26.80
2017-08-16T00:24:25.931Z,28.97
2017-08-16T00:26:52.268Z,29.63
2017-08-16T00:29:18.596Z,32.93
2017-08-16T00:31:44.919Z,30.63
2017-08-16T00:34:14.301Z,34.10
2017-08-16T00:36:40.656Z,36.30
2017-08-16T00:39:07.009Z,38.93
2017-08-16T00:41:33.419Z,40.47
2017-08-16T00:43:59.851Z,37.87
2017-08-16T00:46:26.216Z,42.13
2017-08-16T00:48:53.228Z,44.90
2017-08-16T00:51:19.581Z,40.00
2017-08-16T00:53:48.961Z,38.20
2017-08-16T00:56:15.304Z,39.87
2017-08-16T00:58:41.656Z,38.57
2017-08-16T01:01:08.010Z,36.40
2017-08-16T01:03:34.332Z,34.67
2017-08-16T01:06:00.667Z,35.93
2017-08-16T01:08:27.016Z,37.30
2017-08-16T01:10:54.235Z,37.20
2017-08-16T01:13:20.661Z,38.97
2017-08-16T01:15:47.018Z,36.73
2017-08-16T01:18:13.331Z,36.23
2017-08-16T01:20:39.692Z,35.60
2017-08-16T01:23:05.996Z,39.27
2017-08-16T01:25:32.383Z,36.60
2017-08-16T01:27:59.487Z,37.90
2017-08-16T01:30:25.808Z,36.47
2017-08-16T01:32:52.173Z,38.97
2017-08-16T01:35:18.528Z,37.77
2017-08-16T01:37:44.900Z,37.63
2017-08-16T01:40:11.236Z,42.20
2017-08-16T01:42:37.617Z,40.30
2017-08-16T01:45:04.025Z,37.90
2017-08-16T01:47:30.574Z,37.37
2017-08-16T01:49:56.923Z,38.93
2017-08-16T01:52:23.324Z,41.13
2017-08-16T01:54:49.652Z,35.30
2017-08-16T01:57:16.008Z,41.53
2017-08-16T01:59:42.372Z,42.07
2017-08-16T02:02:09.181Z,40.60
2017-08-16T02:04:36.260Z,40.27
2017-08-16T02:07:02.609Z,43.30
2017-08-16T02:09:29.031Z,37.47
2017-08-16T02:11:55.429Z,43.00
2017-08-16T02:14:21.768Z,44.33
2017-08-16T02:16:48.163Z,42.97
2017-08-16T02:19:14.523Z,49.60
2017-08-16T02:21:41.604Z,42.60
2017-08-16T02:24:08.714Z,40.43
2017-08-16T02:26:35.097Z,40.63
2017-08-16T02:29:01.480Z,44.00
2017-08-16T02:31:27.849Z,43.03
2017-08-16T02:33:54.190Z,45.50
2017-08-16T02:36:20.500Z,47.20
2017-08-16T02:38:46.843Z,45.30
2017-08-16T02:41:13.191Z,42.77
2017-08-16T02:43:39.521Z,45.50
2017-08-16T02:46:05.840Z,39.67
2017-08-16T02:48:32.184Z,43.70
2017-08-16T02:50:58.624Z,48.73
2017-08-16T02:53:24.985Z,46.17
2017-08-16T02:55:51.852Z,48.27
2017-08-16T02:58:18.216Z,47.83
2017-08-16T03:00:46.648Z,43.60
2017-08-16T03:03:13.052Z,47.23
2017-08-16T03:05:39.454Z,44.67
2017-08-16T03:08:05.833Z,42.67
2017-08-16T03:10:32.231Z,44.03
2017-08-16T03:13:06.335Z,45.47
2017-08-16T03:15:32.825Z,49.67
2017-08-16T03:17:59.206Z,44.07
2017-08-16T03:20:25.587Z,45.13
2017-08-16T03:22:51.993Z,46.37
2017-08-16T03:25:18.352Z,48.97
2017-08-16T03:27:44.747Z,54.87
2017-08-16T03:30:11.845Z,49.47
2017-08-16T03:32:38.240Z,46.27
2017-08-16T03:35:04.616Z,49.00
2017-08-16T03:37:31.095Z,49.87
2017-08-16T03:39:57.463Z,48.70
2017-08-16T03:42:24.576Z,45.73
2017-08-16T03:44:51.345Z,49.60
2017-08-16T03:47:17.732Z,46.03
2017-08-16T03:49:44.083Z,51.87
2017-08-16T03:52:10.456Z,43.70
2017-08-16T03:54:36.801Z,43.37
2017-08-16T03:57:03.164Z,49.90
2017-08-16T03:59:29.514Z,48.73
2017-08-16T04:01:55.851Z,47.40
2017-08-16T04:04:22.222Z,50.80
2017-08-16T04:06:48.556Z,54.23
2017-08-16T04:09:14.981Z,50.03
2017-08-16T04:11:41.509Z,48.27
2017-08-16T04:14:07.881Z,47.77
2017-08-16T04:16:34.253Z,48.17
2017-08-16T04:19:00.741Z,55.37
2017-08-16T04:21:27.100Z,54.23
2017-08-16T04:23:53.459Z,54.67
2017-08-16T04:26:19.856Z,52.10
2017-08-16T04:28:46.229Z,56.67
2017-08-16T04:31:12.629Z,49.90
2017-08-16T04:33:39.005Z,54.10
2017-08-16T04:36:05.385Z,55.33
2017-08-16T04:38:32.541Z,54.40
2017-08-16T04:40:58.977Z,52.70
2017-08-16T04:43:25.434Z,49.43
2017-08-16T04:45:51.869Z,59.27
2017-08-16T04:48:18.277Z,51.50
2017-08-16T04:50:44.708Z,51.60
2017-08-16T04:53:11.835Z,60.93
2017-08-16T04:55:38.217Z,58.43
2017-08-16T04:58:04.582Z,53.97
2017-08-16T05:00:31.229Z,56.63
2017-08-16T05:02:57.651Z,59.27
2017-08-16T05:05:24.024Z,57.03
2017-08-16T05:07:50.419Z,59.70
2017-08-16T05:10:16.804Z,59.30
2017-08-16T05:12:43.192Z,57.33
2017-08-16T05:15:09.573Z,59.47
2017-08-16T05:17:36.004Z,67.13
2017-08-16T05:20:02.513Z,64.40
2017-08-16T05:22:28.920Z,61.33
2017-08-16T05:24:55.316Z,70.60
2017-08-16T05:27:21.690Z,68.57
2017-08-16T05:29:48.594Z,71.90
2017-08-16T05:32:15.002Z,67.10
2017-08-16T05:34:41.368Z,64.63
2017-08-16T05:37:07.699Z,63.60
2017-08-16T05:39:34.064Z,62.53
2017-08-16T05:42:00.444Z,68.03
2017-08-16T05:44:26.812Z,61.30
2017-08-16T05:46:53.151Z,66.47
2017-08-16T05:49:20.318Z,66.90
2017-08-16T05:51:46.712Z,60.37
2017-08-16T05:54:13.068Z,64.77
2017-08-16T05:56:43.398Z,64.60
2017-08-16T05:59:09.784Z,61.30
2017-08-16T06:01:36.294Z,58.90
2017-08-16T06:04:02.664Z,63.20
2017-08-16T06:06:28.976Z,56.63
2017-08-16T06:08:56.072Z,57.47
2017-08-16T06:11:22.420Z,59.40
2017-08-16T06:13:48.776Z,61.63
2017-08-16T06:16:15.119Z,61.70
2017-08-16T06:18:41.442Z,58.60
2017-08-16T06:21:07.845Z,63.70
2017-08-16T06:23:34.184Z,60.77
2017-08-16T06:26:00.553Z,58.70
2017-08-16T06:28:26.998Z,56.07
2017-08-16T06:30:53.347Z,56.57
2017-08-16T06:33:19.753Z,54.37
2017-08-16T06:35:46.101Z,61.73
2017-08-16T06:38:12.418Z,59.23
2017-08-16T06:40:38.744Z,56.10
2017-08-16T06:43:06.669Z,55.70
2017-08-16T06:45:33.010Z,56.30
2017-08-16T06:48:01.565Z,52.07
2017-08-16T06:50:27.960Z,54.00
2017-08-16T06:52:54.303Z,55.03
2017-08-16T06:55:21.377Z,55.23
2017-08-16T06:57:47.756Z,49.60
2017-08-16T07:00:14.105Z,54.40
2017-08-16T07:02:40.801Z,51.20
2017-08-16T07:05:07.324Z,48.17
2017-08-16T07:07:33.644Z,56.07
2017-08-16T07:09:59.993Z,50.63
2017-08-16T07:12:26.353Z,56.07
2017-08-16T07:14:52.696Z,57.37
2017-08-16T07:17:19.041Z,52.50
2017-08-16T07:19:45.618Z,56.83
2017-08-16T07:22:11.962Z,61.13
2017-08-16T07:24:38.316Z,51.33
2017-08-16T07:27:04.696Z,55.07
2017-08-16T07:29:31.134Z,55.37
2017-08-16T07:31:57.445Z,55.00
2017-08-16T07:34:23.762Z,56.60
2017-08-16T07:36:51.013Z,57.53
2017-08-16T07:39:17.346Z,62.90
2017-08-16T07:41:43.730Z,49.20
2017-08-16T07:44:10.068Z,50.13
2017-08-16T07:46:36.425Z,50.33
2017-08-16T07:49:02.794Z,46.27
2017-08-16T07:51:29.157Z,49.63
2017-08-16T07:53:56.227Z,47.37
2017-08-16T07:56:22.595Z,45.83
2017-08-16T07:58:48.936Z,44.20
2017-08-16T08:01:15.328Z,44.07
2017-08-16T08:03:41.674Z,44.00
2017-08-16T08:06:08.036Z,43.00
2017-08-16T08:08:34.356Z,44.67
2017-08-16T08:11:00.753Z,47.73
2017-08-16T08:13:27.087Z,44.40
2017-08-16T08:15:54.199Z,47.00
2017-08-16T08:18:20.548Z,44.60
2017-08-16T08:20:47.655Z,43.43
2017-08-16T08:23:14.078Z,42.03
2017-08-16T08:25:40.556Z,44.60
2017-08-16T08:28:07.036Z,44.43
2017-08-16T08:30:35.766Z,40.53
2017-08-16T08:33:02.160Z,44.57
2017-08-16T08:35:28.486Z,34.07
2017-08-16T08:37:54.875Z,30.40
2017-08-16T08:40:21.209Z,32.10
2017-08-16T08:42:47.574Z,32.83
2017-08-16T08:45:17.355Z,32.00
2017-08-16T08:47:44.488Z,24.87
2017-08-16T08:50:10.864Z,25.83
2017-08-16T08:52:37.321Z,23.73
2017-08-16T08:55:03.690Z,23.27
2017-08-16T08:57:30.054Z,21.23
2017-08-16T09:00:00.040Z,22.20
2017-08-16T09:02:26.385Z,22.20
2017-08-16T09:04:53.486Z,21.73
2017-08-16T09:07:19.808Z,21.50
2017-08-16T09:09:46.181Z,26.40
2017-08-16T09:12:12.657Z,26.00
2017-08-16T09:14:45.452Z,24.77
2017-08-16T09:17:11.821Z,27.57
2017-08-16T09:19:38.179Z,22.13
2017-08-16T09:22:04.580Z,29.50
2017-08-16T09:24:31.131Z,26.07
2017-08-16T09:26:57.508Z,27.43
2017-08-16T09:29:25.634Z,24.70
2017-08-16T09:31:52.113Z,25.27
2017-08-16T09:34:18.574Z,23.60
2017-08-16T09:36:44.989Z,24.73
2017-08-16T09:39:11.430Z,24.77
2017-08-16T09:41:37.838Z,24.43
2017-08-16T09:44:04.286Z,25.67
2017-08-16T09:46:30.727Z,21.97
2017-08-16T09:48:57.233Z,22.23
2017-08-16T09:51:23.642Z,19.10
2017-08-16T09:53:50.048Z,17.33
2017-08-16T09:56:16.460Z,13.07
2017-08-16T09:58:42.840Z,16.20
2017-08-16T10:01:09.200Z,15.57
2017-08-16T10:03:37.899Z,18.07
2017-08-16T10:06:04.272Z,18.77
2017-08-16T10:08:30.661Z,15.87
2017-08-16T10:10:57.725Z,15.30
2017-08-16T10:13:24.066Z,17.13
2017-08-16T10:15:51.184Z,18.50
2017-08-16T10:18:19.454Z,15.70
2017-08-16T10:20:46.536Z,16.57
2017-08-16T10:23:12.890Z,18.20
2017-08-16T10:25:40.004Z,16.40
2017-08-16T10:28:07.131Z,17.07
2017-08-16T10:30:33.557Z,14.03
2017-08-16T10:33:02.634Z,14.13
2017-08-16T10:35:29.041Z,17.73
2017-08-16T10:37:55.439Z,15.57
2017-08-16T10:40:22.521Z,14.80
2017-08-16T10:42:48.865Z,13.17
2017-08-16T10:45:15.255Z,13.10
2017-08-16T10:47:48.088Z,13.50
2017-08-16T10:50:14.457Z,13.93
2017-08-16T10:52:40.811Z,13.30
2017-08-16T10:55:07.205Z,14.17
2017-08-16T10:57:33.548Z,14.03
2017-08-16T10:59:59.937Z,13.77
2017-08-16T11:02:30.164Z,13.13
2017-08-16T11:04:56.496Z,12.60
2017-08-16T11:07:22.868Z,12.07
2017-08-16T11:09:49.213Z,12.60
2017-08-16T11:12:15.549Z,12.63
2017-08-16T11:14:41.879Z,10.87
2017-08-16T11:17:12.245Z,12.60
2017-08-16T11:19:38.577Z,11.13
2017-08-16T11:22:04.896Z,14.20
2017-08-16T11:24:31.205Z,12.10
2017-08-16T11:26:57.523Z,11.57
2017-08-16T11:29:23.852Z,12.33
2017-08-16T11:31:55.784Z,11.83
2017-08-16T11:34:22.114Z,12.47
2017-08-16T11:36:48.444Z,11.30
2017-08-16T11:39:14.762Z,12.13
2017-08-16T11:41:41.084Z,14.83
2017-08-16T11:44:07.409Z,13.00
2017-08-16T11:46:40.249Z,12.13
2017-08-16T11:49:06.596Z,11.70
2017-08-16T11:51:32.941Z,11.50
2017-08-16T11:53:59.300Z,11.50
2017-08-16T11:56:25.633Z,10.70
2017-08-16T11:58:52.008Z,11.80
2017-08-16T12:01:21.164Z,10.23
2017-08-16T12:03:47.473Z,11.50
2017-08-16T12:06:13.796Z,9.50
2017-08-16T12:08:40.107Z,11.20
2017-08-16T12:11:06.468Z,10.20
2017-08-16T12:13:32.788Z,10.43
2017-08-16T12:16:06.005Z,11.90
2017-08-16T12:18:32.352Z,9.70
2017-08-16T12:20:58.664Z,10.27
2017-08-16T12:23:25.002Z,9.83
2017-08-16T12:25:51.324Z,10.67
2017-08-16T12:28:17.689Z,10.27
2017-08-16T12:30:46.087Z,12.10
2017-08-16T12:33:12.548Z,8.07
2017-08-16T12:35:38.905Z,11.00
2017-08-16T12:38:05.266Z,13.43
2017-08-16T12:40:31.700Z,11.47
2017-08-16T12:42:58.045Z,9.93
2017-08-16T12:45:24.404Z,9.50
2017-08-16T12:47:50.801Z,11.60
2017-08-16T12:50:17.133Z,12.10
2017-08-16T12:52:43.444Z,12.10
2017-08-16T12:55:09.769Z,10.03
2017-08-16T12:57:36.148Z,9.30
2017-08-16T13:00:02.497Z,10.97
2017-08-16T13:02:28.846Z,8.63
2017-08-16T13:05:00.461Z,9.60
2017-08-16T13:07:26.806Z,9.90
2017-08-16T13:09:53.149Z,11.30
2017-08-16T13:12:19.469Z,11.57
2017-08-16T13:14:45.796Z,9.60
2017-08-16T13:17:12.118Z,9.50
2017-08-16T13:19:38.438Z,8.57
2017-08-16T13:22:04.800Z,11.27
2017-08-16T13:24:32.784Z,8.73
2017-08-16T13:26:59.241Z,9.70
2017-08-16T13:29:25.552Z,8.63
2017-08-16T13:31:51.839Z,9.00
2017-08-16T13:34:18.227Z,9.97
2017-08-16T13:36:46.630Z,11.47
2017-08-16T13:39:12.984Z,10.27
2017-08-16T13:41:39.307Z,10.23
2017-08-16T13:44:05.616Z,11.13
2017-08-16T13:46:31.901Z,11.53
2017-08-16T13:48:58.207Z,10.03
2017-08-16T13:51:24.551Z,10.63
2017-08-16T13:53:50.868Z,12.97
2017-08-16T13:56:17.200Z,10.50
2017-08-16T13:58:48.646Z,10.47
2017-08-16T14:01:15.202Z,9.97
2017-08-16T14:03:41.596Z,10.13
2017-08-16T14:06:07.923Z,12.23
2017-08-16T14:08:34.268Z,11.03
2017-08-16T14:11:00.592Z,11.23
2017-08-16T14:13:26.920Z,10.57
2017-08-16T14:15:56.685Z,11.20
2017-08-16T14:18:23.010Z,11.50
2017-08-16T14:20:49.352Z,14.03
2017-08-16T14:23:15.663Z,11.70
2017-08-16T14:25:41.952Z,12.33
2017-08-16T14:28:08.296Z,11.60
2017-08-16T14:30:34.590Z,11.87
2017-08-16T14:33:00.918Z,11.13
2017-08-16T14:35:27.232Z,14.47
2017-08-16T14:37:53.564Z,11.50
2017-08-16T14:40:19.870Z,10.60
2017-08-16T14:42:46.718Z,11.00
2017-08-16T14:45:13.028Z,12.10
2017-08-16T14:47:39.384Z,19.67
2017-08-16T14:50:05.693Z,11.13
2017-08-16T14:52:32.004Z,11.20
2017-08-16T14:54:58.346Z,10.90
2017-08-16T14:57:24.648Z,10.87
2017-08-16T14:59:50.999Z,10.43
2017-08-16T15:02:19.419Z,9.70
2017-08-16T15:04:46.545Z,9.50
2017-08-16T15:07:14.180Z,12.10
2017-08-16T15:09:40.559Z,10.17
2017-08-16T15:12:07.544Z,11.50
2017-08-16T15:14:34.169Z,10.50
2017-08-16T15:17:00.716Z,10.83
2017-08-16T15:19:27.385Z,9.20
2017-08-16T15:21:54.835Z,9.67
2017-08-16T15:24:25.013Z,10.40
2017-08-16T15:26:51.565Z,10.37
2017-08-16T15:29:18.185Z,9.77
2017-08-16T15:31:44.757Z,10.07
2017-08-16T15:34:11.395Z,10.10
2017-08-16T15:36:38.114Z,10.17
2017-08-16T15:39:04.633Z,8.87
2017-08-16T15:41:31.195Z,8.93
2017-08-16T15:43:57.776Z,9.03
2017-08-16T15:46:24.647Z,12.33
2017-08-16T15:48:52.093Z,9.20
2017-08-16T15:51:18.680Z,9.67
2017-08-16T15:53:49.199Z,9.07
2017-08-16T15:56:15.808Z,11.00
2017-08-16T15:58:42.381Z,9.17
2017-08-16T16:01:08.993Z,10.97
2017-08-16T16:03:35.544Z,9.07
2017-08-16T16:06:02.152Z,8.10
2017-08-16T16:08:28.765Z,12.00
2017-08-16T16:10:55.311Z,9.80
2017-08-16T16:13:21.950Z,9.30
2017-08-16T16:15:48.525Z,9.27
2017-08-16T16:18:15.056Z,9.20
2017-08-16T16:20:41.610Z,9.30
2017-08-16T16:23:08.185Z,8.00
2017-08-16T16:25:34.750Z,7.67
2017-08-16T16:28:01.491Z,7.73
2017-08-16T16:30:28.066Z,8.67
2017-08-16T16:32:54.600Z,11.60
2017-08-16T16:35:21.152Z,7.33
2017-08-16T16:37:47.740Z,7.80
2017-08-16T16:40:14.290Z,8.40
2017-08-16T16:42:40.812Z,9.00
2017-08-16T16:45:07.373Z,9.63
2017-08-16T16:47:33.954Z,8.17
2017-08-16T16:50:00.543Z,7.40
2017-08-16T16:52:27.088Z,8.03
2017-08-16T16:54:53.708Z,7.77
2017-08-16T16:57:20.268Z,8.37
2017-08-16T16:59:46.859Z,7.63
2017-08-16T17:02:13.369Z,9.73
2017-08-16T17:04:40.132Z,8.07
2017-08-16T17:07:15.669Z,7.60
2017-08-16T17:09:42.511Z,7.80
2017-08-16T17:12:09.032Z,6.73
2017-08-16T17:14:35.586Z,7.10
2017-08-16T17:17:02.150Z,6.80
2017-08-16T17:19:28.725Z,7.73
2017-08-16T17:21:55.263Z,7.53
2017-08-16T17:24:21.939Z,7.20
2017-08-16T17:26:48.501Z,7.07
2017-08-16T17:29:15.049Z,6.50
2017-08-16T17:31:41.696Z,8.33
2017-08-16T17:34:08.295Z,8.13
2017-08-16T17:36:34.990Z,7.70
2017-08-16T17:39:05.484Z,7.73
2017-08-16T17:41:32.146Z,6.80
2017-08-16T17:43:58.756Z,6.87
2017-08-16T17:46:25.536Z,9.73
2017-08-16T17:48:52.072Z,7.50
2017-08-16T17:51:18.664Z,8.00
2017-08-16T17:53:48.378Z,7.77
2017-08-16T17:56:14.928Z,8.10
2017-08-16T17:58:41.488Z,7.03
2017-08-16T18:01:08.028Z,7.63
2017-08-16T18:03:34.587Z,7.30
2017-08-16T18:06:01.112Z,8.30
2017-08-16T18:08:31.286Z,7.57
2017-08-16T18:10:57.892Z,8.23
2017-08-16T18:13:24.456Z,10.00
2017-08-16T18:15:51.004Z,9.57
2017-08-16T18:18:17.576Z,7.90
2017-08-16T18:20:44.096Z,7.77
2017-08-16T18:23:14.460Z,9.50
2017-08-16T18:25:41.047Z,6.80
2017-08-16T18:28:07.620Z,10.40
2017-08-16T18:30:34.165Z,7.03
2017-08-16T18:33:00.689Z,6.70
2017-08-16T18:35:27.276Z,7.70
2017-08-16T18:37:57.070Z,8.50
2017-08-16T18:40:23.628Z,6.73
2017-08-16T18:42:50.369Z,6.87
2017-08-16T18:45:16.953Z,7.07
2017-08-16T18:47:43.527Z,7.57
2017-08-16T18:50:10.073Z,9.60
2017-08-16T18:52:38.671Z,7.67
2017-08-16T18:55:05.334Z,8.20
2017-08-16T18:57:31.901Z,7.03
2017-08-16T18:59:58.468Z,9.93
2017-08-16T19:02:25.051Z,7.50
2017-08-16T19:04:51.649Z,8.70
2017-08-16T19:07:21.552Z,7.50
2017-08-16T19:09:48.151Z,9.40
2017-08-16T19:12:14.678Z,7.40
2017-08-16T19:14:41.294Z,7.43
2017-08-16T19:17:07.854Z,7.50
2017-08-16T19:19:34.456Z,9.33
2017-08-16T19:22:01.024Z,7.77
2017-08-16T19:24:27.548Z,6.67
2017-08-16T19:26:54.140Z,9.63
2017-08-16T19:29:20.698Z,8.80
2017-08-16T19:31:47.258Z,7.70
2017-08-16T19:34:13.773Z,6.70
2017-08-16T19:36:40.363Z,8.90
2017-08-16T19:39:10.930Z,8.07
2017-08-16T19:41:37.490Z,7.63
2017-08-16T19:44:04.060Z,7.57
2017-08-16T19:46:30.670Z,8.63
2017-08-16T19:48:57.483Z,8.07
2017-08-16T19:51:24.047Z,9.40
2017-08-16T19:53:54.007Z,8.40
2017-08-16T19:56:20.532Z,7.90
2017-08-16T19:58:47.089Z,7.33
2017-08-16T20:01:13.620Z,8.10
2017-08-16T20:03:40.214Z,7.80
2017-08-16T20:06:07.166Z,7.03
2017-08-16T20:08:33.913Z,7.73
2017-08-16T20:11:00.496Z,8.20
2017-08-16T20:13:27.109Z,8.53
2017-08-16T20:15:53.680Z,9.00
2017-08-16T20:18:20.232Z,7.93
2017-08-16T20:20:46.882Z,7.70
2017-08-16T20:23:13.404Z,6.93
2017-08-16T20:25:39.995Z,9.60
2017-08-16T20:28:06.535Z,7.47
2017-08-16T20:30:33.225Z,8.77
2017-08-16T20:32:59.793Z,10.13
2017-08-16T20:35:28.620Z,10.67
2017-08-16T20:37:55.127Z,8.03
2017-08-16T20:40:21.713Z,9.03
2017-08-16T20:42:48.330Z,8.87
2017-08-16T20:45:14.900Z,7.73
2017-08-16T20:47:41.449Z,8.53
2017-08-16T20:50:08.104Z,8.30
2017-08-16T20:52:34.716Z,8.70
2017-08-16T20:55:01.272Z,7.43
2017-08-16T20:57:28.312Z,8.93
2017-08-16T20:59:54.848Z,7.90
2017-08-16T21:02:21.422Z,7.07
2017-08-16T21:04:48.058Z,7.90
2017-08-16T21:07:14.612Z,7.63
2017-08-16T21:09:41.214Z,8.40
2017-08-16T21:12:07.793Z,8.67
2017-08-16T21:14:34.561Z,9.53
2017-08-16T21:17:01.117Z,9.47
2017-08-16T21:19:27.669Z,15.63
2017-08-16T21:21:54.391Z,17.93
2017-08-16T21:24:20.969Z,13.07
2017-08-16T21:26:47.815Z,17.30
2017-08-16T21:29:14.395Z,16.50
2017-08-16T21:31:40.972Z,13.57
2017-08-16T21:34:07.577Z,14.07
2017-08-16T21:36:34.369Z,15.73
2017-08-16T21:39:00.932Z,15.10
2017-08-16T21:41:27.453Z,15.50
2017-08-16T21:43:54.022Z,16.33
2017-08-16T21:46:20.551Z,16.20
2017-08-16T21:48:47.098Z,15.17
2017-08-16T21:51:13.753Z,14.07
2017-08-16T21:53:40.304Z,15.77
2017-08-16T21:56:06.821Z,16.20
2017-08-16T21:58:33.514Z,15.47
2017-08-16T22:01:00.168Z,13.93
2017-08-16T22:03:26.769Z,17.13
2017-08-16T22:05:53.307Z,15.83
2017-08-16T22:08:19.882Z,16.33
2017-08-16T22:10:46.520Z,15.97
2017-08-16T22:13:13.081Z,14.50
2017-08-16T22:15:39.654Z,15.90
2017-08-16T22:18:06.242Z,14.40
2017-08-16T22:20:32.908Z,15.07
2017-08-16T22:22:59.509Z,15.03
2017-08-16T22:25:26.112Z,13.40
2017-08-16T22:27:52.722Z,14.33
2017-08-16T22:30:19.356Z,15.40
2017-08-16T22:32:45.888Z,13.87
2017-08-16T22:35:12.448Z,12.70
2017-08-16T22:37:39.029Z,14.70
2017-08-16T22:40:05.609Z,15.20
2017-08-16T22:42:32.154Z,15.73
2017-08-16T22:44:58.733Z,14.13
2017-08-16T22:47:25.283Z,14.03
2017-08-16T22:49:52.411Z,15.47
2017-08-16T22:52:18.987Z,14.00
2017-08-16T22:54:45.528Z,12.20
2017-08-16T22:57:12.095Z,12.20
2017-08-16T22:59:38.652Z,13.00
2017-08-16T23:02:05.193Z,12.00
2017-08-16T23:04:31.756Z,13.30
2017-08-16T23:06:58.327Z,12.90
2017-08-16T23:09:24.878Z,13.83
2017-08-16T23:11:52.076Z,14.77
2017-08-16T23:14:19.875Z,12.83
2017-08-16T23:16:46.861Z,15.10
2017-08-16T23:19:13.428Z,12.80
2017-08-16T23:21:40.231Z,15.37
2017-08-16T23:24:06.802Z,14.70
2017-08-16T23:26:33.681Z,14.13
2017-08-16T23:29:00.277Z,12.53
2017-08-16T23:31:27.074Z,14.27
2017-08-16T23:33:53.673Z,13.87
2017-08-16T23:36:20.212Z,13.07
2017-08-16T23:38:46.749Z,14.90
2017-08-16T23:41:13.511Z,12.80
2017-08-16T23:43:40.096Z,14.77
2017-08-16T23:46:06.692Z,13.77
2017-08-16T23:48:33.276Z,13.53
2017-08-16T23:50:59.860Z,14.80
2017-08-16T23:53:26.461Z,14.60
2017-08-16T23:55:53.001Z,13.33
2017-08-16T23:58:19.532Z,15.20
